sensor_id;sensor_type;location;lat;lon;timestamp;pressure;altitude;pressure_sealevel;temperature;humidity
59608;BME280;45426;44.726;10.390;2023-11-21T00:02:17;99999.56;;;11.51;100.00
59608;BME280;45426;44.726;10.390;2023-11-21T00:04:43;100001.75;;;11.45;100.00
59608;BME280;45426;44.726;10.390;2023-11-21T00:07:08;99997.03;;;11.14;100.00
59608;BME280;45426;44.726;10.390;2023-11-21T00:09:34;99993.75;;;11.08;100.00
59608;BME280;45426;44.726;10.390;2023-11-21T00:12:00;100004.78;;;11.00;100.00
59608;BME280;45426;44.726;10.390;2023-11-21T00:14:25;100007.22;;;11.17;100.00
59608;BME280;45426;44.726;10.390;2023-11-21T00:16:51;100008.59;;;11.39;100.00
59608;BME280;45426;44.726;10.390;2023-11-21T00:19:16;99997.13;;;10.77;100.00
59608;BME280;45426;44.726;10.390;2023-11-21T00:21:42;99989.13;;;11.09;100.00
59608;BME280;45426;44.726;10.390;2023-11-21T00:24:10;99975.03;;;11.19;100.00
59608;BME280;45426;44.726;10.390;2023-11-21T00:26:39;99957.84;;;11.31;100.00
59608;BME280;45426;44.726;10.390;2023-11-21T00:29:04;99950.25;;;11.08;100.00
59608;BME280;45426;44.726;10.390;2023-11-21T00:31:34;99949.06;;;10.65;100.00
59608;BME280;45426;44.726;10.390;2023-11-21T00:34:02;99928.72;;;10.87;100.00
59608;BME280;45426;44.726;10.390;2023-11-21T00:36:28;99915.69;;;10.65;100.00
59608;BME280;45426;44.726;10.390;2023-11-21T00:38:54;99910.03;;;10.58;100.00
59608;BME280;45426;44.726;10.390;2023-11-21T00:41:21;99901.78;;;10.54;100.00
59608;BME280;45426;44.726;10.390;2023-11-21T00:43:46;99888.38;;;10.33;100.00
59608;BME280;45426;44.726;10.390;2023-11-21T00:46:11;99884.28;;;10.80;100.00
59608;BME280;45426;44.726;10.390;2023-11-21T00:48:37;99899.81;;;10.67;100.00
59608;BME280;45426;44.726;10.390;2023-11-21T00:51:02;99907.16;;;11.23;100.00
59608;BME280;45426;44.726;10.390;2023-11-21T00:53:28;99915.09;;;11.00;100.00
59608;BME280;45426;44.726;10.390;2023-11-21T00:55:53;99925.16;;;10.99;100.00
59608;BME280;45426;44.726;10.390;2023-11-21T00:58:25;99944.47;;;10.94;100.00
59608;BME280;45426;44.726;10.390;2023-11-21T01:00:50;99945.63;;;10.81;100.00
59608;BME280;45426;44.726;10.390;2023-11-21T01:03:16;99954.38;;;11.02;100.00
59608;BME280;45426;44.726;10.390;2023-11-21T01:05:42;99952.41;;;11.31;100.00
59608;BME280;45426;44.726;10.390;2023-11-21T01:08:07;99953.75;;;11.53;100.00
59608;BME280;45426;44.726;10.390;2023-11-21T01:10:32;99940.66;;;11.27;100.00
59608;BME280;45426;44.726;10.390;2023-11-21T01:12:59;99931.72;;;11.26;100.00
59608;BME280;45426;44.726;10.390;2023-11-21T01:15:25;99948.47;;;11.29;100.00
59608;BME280;45426;44.726;10.390;2023-11-21T01:17:51;99947.69;;;11.28;100.00
59608;BME280;45426;44.726;10.390;2023-11-21T01:20:17;99951.28;;;11.32;100.00
59608;BME280;45426;44.726;10.390;2023-11-21T01:22:43;99960.66;;;11.19;100.00
59608;BME280;45426;44.726;10.390;2023-11-21T01:25:09;99943.63;;;11.22;100.00
59608;BME280;45426;44.726;10.390;2023-11-21T01:27:36;99942.16;;;11.40;100.00
59608;BME280;45426;44.726;10.390;2023-11-21T01:30:03;99943.03;;;11.44;100.00
59608;BME280;45426;44.726;10.390;2023-11-21T01:32:28;99957.25;;;11.38;100.00
59608;BME280;45426;44.726;10.390;2023-11-21T01:34:54;99946.97;;;11.31;100.00
59608;BME280;45426;44.726;10.390;2023-11-21T01:37:21;99951.91;;;11.41;100.00
59608;BME280;45426;44.726;10.390;2023-11-21T01:39:47;99949.09;;;11.54;100.00
59608;BME280;45426;44.726;10.390;2023-11-21T01:42:12;99947.25;;;11.26;100.00
59608;BME280;45426;44.726;10.390;2023-11-21T01:44:38;99952.59;;;11.38;100.00
59608;BME280;45426;44.726;10.390;2023-11-21T01:47:05;99943.50;;;11.46;100.00
59608;BME280;45426;44.726;10.390;2023-11-21T01:49:35;99943.66;;;11.54;100.00
59608;BME280;45426;44.726;10.390;2023-11-21T01:52:01;99947.41;;;11.33;100.00
59608;BME280;45426;44.726;10.390;2023-11-21T01:54:27;99950.16;;;11.49;100.00
59608;BME280;45426;44.726;10.390;2023-11-21T01:56:58;99944.34;;;11.35;100.00
59608;BME280;45426;44.726;10.390;2023-11-21T01:59:36;99949.69;;;11.31;100.00
59608;BME280;45426;44.726;10.390;2023-11-21T02:02:04;99957.97;;;11.66;100.00
59608;BME280;45426;44.726;10.390;2023-11-21T02:04:32;99950.13;;;11.33;100.00
59608;BME280;45426;44.726;10.390;2023-11-21T02:06:57;99956.66;;;11.44;100.00
59608;BME280;45426;44.726;10.390;2023-11-21T02:09:25;99951.09;;;11.25;100.00
59608;BME280;45426;44.726;10.390;2023-11-21T02:11:51;99967.09;;;10.98;100.00
59608;BME280;45426;44.726;10.390;2023-11-21T02:14:17;99966.88;;;10.91;100.00
59608;BME280;45426;44.726;10.390;2023-11-21T02:16:45;99952.34;;;11.43;100.00
59608;BME280;45426;44.726;10.390;2023-11-21T02:19:18;99947.53;;;11.53;100.00
59608;BME280;45426;44.726;10.390;2023-11-21T02:21:45;99944.72;;;11.65;100.00
59608;BME280;45426;44.726;10.390;2023-11-21T02:24:11;99938.59;;;11.68;100.00
59608;BME280;45426;44.726;10.390;2023-11-21T02:26:36;99928.56;;;11.40;100.00
59608;BME280;45426;44.726;10.390;2023-11-21T02:29:02;99925.41;;;11.22;100.00
59608;BME280;45426;44.726;10.390;2023-11-21T02:31:29;99935.06;;;11.36;100.00
59608;BME280;45426;44.726;10.390;2023-11-21T02:33:55;99934.81;;;11.57;100.00
59608;BME280;45426;44.726;10.390;2023-11-21T02:36:20;99929.72;;;11.39;100.00
59608;BME280;45426;44.726;10.390;2023-11-21T02:38:47;99918.66;;;10.88;100.00
59608;BME280;45426;44.726;10.390;2023-11-21T02:41:12;99928.81;;;10.63;100.00
59608;BME280;45426;44.726;10.390;2023-11-21T02:43:38;99920.91;;;10.86;100.00
59608;BME280;45426;44.726;10.390;2023-11-21T02:46:04;99933.22;;;10.67;100.00
59608;BME280;45426;44.726;10.390;2023-11-21T02:48:29;99929.16;;;11.18;100.00
59608;BME280;45426;44.726;10.390;2023-11-21T02:50:56;99923.59;;;11.58;100.00
59608;BME280;45426;44.726;10.390;2023-11-21T02:53:21;99922.19;;;11.49;100.00
59608;BME280;45426;44.726;10.390;2023-11-21T02:55:46;99917.66;;;11.08;100.00
59608;BME280;45426;44.726;10.390;2023-11-21T02:58:12;99923.53;;;10.54;100.00
59608;BME280;45426;44.726;10.390;2023-11-21T03:00:37;99912.59;;;11.23;100.00
59608;BME280;45426;44.726;10.390;2023-11-21T03:03:05;99913.66;;;11.34;100.00
59608;BME280;45426;44.726;10.390;2023-11-21T03:05:30;99910.78;;;10.71;100.00
59608;BME280;45426;44.726;10.390;2023-11-21T03:07:56;99919.59;;;10.39;100.00
59608;BME280;45426;44.726;10.390;2023-11-21T03:10:21;99919.34;;;10.85;100.00
59608;BME280;45426;44.726;10.390;2023-11-21T03:12:47;99911.38;;;11.20;100.00
59608;BME280;45426;44.726;10.390;2023-11-21T03:15:12;99908.28;;;11.22;100.00
59608;BME280;45426;44.726;10.390;2023-11-21T03:17:38;99901.84;;;10.98;100.00
59608;BME280;45426;44.726;10.390;2023-11-21T03:20:04;99897.06;;;11.07;100.00
59608;BME280;45426;44.726;10.390;2023-11-21T03:22:29;99887.78;;;10.80;100.00
59608;BME280;45426;44.726;10.390;2023-11-21T03:24:55;99891.97;;;10.49;100.00
59608;BME280;45426;44.726;10.390;2023-11-21T03:27:20;99887.94;;;10.31;100.00
59608;BME280;45426;44.726;10.390;2023-11-21T03:29:46;99906.78;;;10.80;100.00
59608;BME280;45426;44.726;10.390;2023-11-21T03:32:12;99887.88;;;11.28;100.00
59608;BME280;45426;44.726;10.390;2023-11-21T03:34:58;99877.75;;;11.13;100.00
59608;BME280;45426;44.726;10.390;2023-11-21T03:37:24;99879.47;;;10.89;100.00
59608;BME280;45426;44.726;10.390;2023-11-21T03:39:50;99893.34;;;10.72;100.00
59608;BME280;45426;44.726;10.390;2023-11-21T03:42:16;99887.97;;;10.59;100.00
59608;BME280;45426;44.726;10.390;2023-11-21T03:44:42;99879.63;;;10.52;100.00
59608;BME280;45426;44.726;10.390;2023-11-21T03:47:07;99873.00;;;10.65;100.00
59608;BME280;45426;44.726;10.390;2023-11-21T03:49:33;99886.97;;;10.52;100.00
59608;BME280;45426;44.726;10.390;2023-11-21T03:51:58;99886.66;;;10.53;100.00
59608;BME280;45426;44.726;10.390;2023-11-21T03:54:24;99885.25;;;10.59;100.00
59608;BME280;45426;44.726;10.390;2023-11-21T03:56:49;99883.88;;;10.65;100.00
59608;BME280;45426;44.726;10.390;2023-11-21T03:59:14;99876.56;;;10.82;100.00
59608;BME280;45426;44.726;10.390;2023-11-21T04:01:40;99873.56;;;11.15;100.00
59608;BME280;45426;44.726;10.390;2023-11-21T04:04:06;99876.22;;;10.99;100.00
59608;BME280;45426;44.726;10.390;2023-11-21T04:06:31;99881.19;;;11.10;100.00
59608;BME280;45426;44.726;10.390;2023-11-21T04:08:58;99888.03;;;11.19;100.00
59608;BME280;45426;44.726;10.390;2023-11-21T04:11:23;99878.56;;;11.29;100.00
59608;BME280;45426;44.726;10.390;2023-11-21T04:13:49;99880.75;;;11.23;100.00
59608;BME280;45426;44.726;10.390;2023-11-21T04:16:14;99880.25;;;10.90;100.00
59608;BME280;45426;44.726;10.390;2023-11-21T04:18:40;99879.72;;;10.84;100.00
59608;BME280;45426;44.726;10.390;2023-11-21T04:21:06;99864.97;;;11.13;100.00
59608;BME280;45426;44.726;10.390;2023-11-21T04:23:33;99868.41;;;11.26;100.00
59608;BME280;45426;44.726;10.390;2023-11-21T04:25:58;99878.50;;;10.97;100.00
59608;BME280;45426;44.726;10.390;2023-11-21T04:28:24;99879.66;;;10.96;100.00
59608;BME280;45426;44.726;10.390;2023-11-21T04:30:50;99878.75;;;11.36;100.00
59608;BME280;45426;44.726;10.390;2023-11-21T04:33:15;99878.28;;;11.50;100.00
59608;BME280;45426;44.726;10.390;2023-11-21T04:35:41;99877.16;;;11.67;100.00
59608;BME280;45426;44.726;10.390;2023-11-21T04:38:07;99872.31;;;11.44;100.00
59608;BME280;45426;44.726;10.390;2023-11-21T04:40:32;99871.03;;;11.54;100.00
59608;BME280;45426;44.726;10.390;2023-11-21T04:42:58;99864.69;;;11.66;100.00
59608;BME280;45426;44.726;10.390;2023-11-21T04:45:23;99855.31;;;11.63;100.00
59608;BME280;45426;44.726;10.390;2023-11-21T04:47:48;99870.75;;;11.43;100.00
59608;BME280;45426;44.726;10.390;2023-11-21T04:50:14;99881.47;;;11.36;100.00
59608;BME280;45426;44.726;10.390;2023-11-21T04:52:39;99887.78;;;11.24;100.00
59608;BME280;45426;44.726;10.390;2023-11-21T04:55:05;99883.72;;;11.50;100.00
59608;BME280;45426;44.726;10.390;2023-11-21T04:57:35;99884.63;;;11.54;100.00
59608;BME280;45426;44.726;10.390;2023-11-21T05:00:00;99880.22;;;11.65;100.00
59608;BME280;45426;44.726;10.390;2023-11-21T05:02:25;99882.66;;;11.71;100.00
59608;BME280;45426;44.726;10.390;2023-11-21T05:04:51;99881.00;;;11.66;100.00
59608;BME280;45426;44.726;10.390;2023-11-21T05:07:16;99879.19;;;11.38;100.00
59608;BME280;45426;44.726;10.390;2023-11-21T05:09:42;99876.69;;;11.65;100.00
59608;BME280;45426;44.726;10.390;2023-11-21T05:12:09;99883.13;;;11.57;100.00
59608;BME280;45426;44.726;10.390;2023-11-21T05:14:36;99878.22;;;11.78;100.00
59608;BME280;45426;44.726;10.390;2023-11-21T05:17:02;99871.19;;;11.45;100.00
59608;BME280;45426;44.726;10.390;2023-11-21T05:19:27;99880.59;;;11.32;100.00
59608;BME280;45426;44.726;10.390;2023-11-21T05:21:53;99894.88;;;11.61;100.00
59608;BME280;45426;44.726;10.390;2023-11-21T05:24:19;99891.34;;;11.76;100.00
59608;BME280;45426;44.726;10.390;2023-11-21T05:26:44;99888.91;;;11.71;100.00
59608;BME280;45426;44.726;10.390;2023-11-21T05:29:10;99893.75;;;11.62;100.00
59608;BME280;45426;44.726;10.390;2023-11-21T05:31:36;99898.84;;;11.48;100.00
59608;BME280;45426;44.726;10.390;2023-11-21T05:34:02;99897.28;;;11.46;100.00
59608;BME280;45426;44.726;10.390;2023-11-21T05:36:28;99892.50;;;11.75;100.00
59608;BME280;45426;44.726;10.390;2023-11-21T05:38:53;99884.34;;;11.75;100.00
59608;BME280;45426;44.726;10.390;2023-11-21T05:41:19;99878.91;;;11.43;100.00
59608;BME280;45426;44.726;10.390;2023-11-21T05:43:45;99875.84;;;11.29;100.00
59608;BME280;45426;44.726;10.390;2023-11-21T05:46:10;99876.25;;;11.63;100.00
59608;BME280;45426;44.726;10.390;2023-11-21T05:48:36;99894.88;;;11.29;100.00
59608;BME280;45426;44.726;10.390;2023-11-21T05:51:07;99898.09;;;10.75;100.00
59608;BME280;45426;44.726;10.390;2023-11-21T05:53:33;99902.41;;;10.76;100.00
59608;BME280;45426;44.726;10.390;2023-11-21T05:55:59;99898.06;;;10.87;100.00
59608;BME280;45426;44.726;10.390;2023-11-21T05:58:24;99898.56;;;11.21;100.00
59608;BME280;45426;44.726;10.390;2023-11-21T06:00:49;99891.19;;;11.69;100.00
59608;BME280;45426;44.726;10.390;2023-11-21T06:03:15;99890.03;;;11.70;100.00
59608;BME280;45426;44.726;10.390;2023-11-21T06:05:42;99888.78;;;11.83;100.00
59608;BME280;45426;44.726;10.390;2023-11-21T06:08:08;99899.78;;;11.87;100.00
59608;BME280;45426;44.726;10.390;2023-11-21T06:10:34;99896.81;;;11.92;100.00
59608;BME280;45426;44.726;10.390;2023-11-21T06:12:59;99893.53;;;11.87;100.00
59608;BME280;45426;44.726;10.390;2023-11-21T06:15:25;99885.13;;;11.76;100.00
59608;BME280;45426;44.726;10.390;2023-11-21T06:17:51;99888.63;;;11.76;100.00
59608;BME280;45426;44.726;10.390;2023-11-21T06:20:20;99892.75;;;11.86;100.00
59608;BME280;45426;44.726;10.390;2023-11-21T06:22:47;99889.88;;;11.79;100.00
59608;BME280;45426;44.726;10.390;2023-11-21T06:25:13;99892.94;;;11.77;100.00
59608;BME280;45426;44.726;10.390;2023-11-21T06:27:45;99882.59;;;11.67;100.00
59608;BME280;45426;44.726;10.390;2023-11-21T06:30:12;99879.78;;;11.63;100.00
59608;BME280;45426;44.726;10.390;2023-11-21T06:32:38;99877.88;;;11.32;100.00
59608;BME280;45426;44.726;10.390;2023-11-21T06:35:06;99874.06;;;11.05;100.00
59608;BME280;45426;44.726;10.390;2023-11-21T06:37:32;99881.28;;;11.13;100.00
59608;BME280;45426;44.726;10.390;2023-11-21T06:39:59;99874.78;;;10.74;100.00
59608;BME280;45426;44.726;10.390;2023-11-21T06:42:25;99888.72;;;10.44;100.00
59608;BME280;45426;44.726;10.390;2023-11-21T06:44:50;99885.19;;;10.72;100.00
59608;BME280;45426;44.726;10.390;2023-11-21T06:47:22;99890.53;;;10.96;100.00
59608;BME280;45426;44.726;10.390;2023-11-21T06:49:50;99879.09;;;11.19;100.00
59608;BME280;45426;44.726;10.390;2023-11-21T06:52:16;99884.88;;;11.17;100.00
59608;BME280;45426;44.726;10.390;2023-11-21T06:54:42;99877.25;;;11.55;100.00
59608;BME280;45426;44.726;10.390;2023-11-21T06:57:07;99881.59;;;10.67;100.00
59608;BME280;45426;44.726;10.390;2023-11-21T06:59:33;99882.00;;;10.54;100.00
59608;BME280;45426;44.726;10.390;2023-11-21T07:01:59;99883.06;;;10.93;100.00
59608;BME280;45426;44.726;10.390;2023-11-21T07:04:24;99877.19;;;11.35;100.00
59608;BME280;45426;44.726;10.390;2023-11-21T07:06:54;99867.34;;;11.46;100.00
59608;BME280;45426;44.726;10.390;2023-11-21T07:09:19;99871.72;;;11.67;100.00
59608;BME280;45426;44.726;10.390;2023-11-21T07:11:49;99861.53;;;11.64;100.00
59608;BME280;45426;44.726;10.390;2023-11-21T07:14:15;99869.34;;;11.65;100.00
59608;BME280;45426;44.726;10.390;2023-11-21T07:16:42;99870.47;;;11.80;100.00
59608;BME280;45426;44.726;10.390;2023-11-21T07:19:07;99868.09;;;11.63;100.00
59608;BME280;45426;44.726;10.390;2023-11-21T07:21:34;99869.00;;;11.51;100.00
59608;BME280;45426;44.726;10.390;2023-11-21T07:24:04;99864.88;;;11.73;100.00
59608;BME280;45426;44.726;10.390;2023-11-21T07:26:31;99864.78;;;11.70;100.00
59608;BME280;45426;44.726;10.390;2023-11-21T07:28:57;99857.00;;;11.52;100.00
59608;BME280;45426;44.726;10.390;2023-11-21T07:31:22;99860.03;;;11.82;100.00
59608;BME280;45426;44.726;10.390;2023-11-21T07:33:49;99854.00;;;11.41;100.00
59608;BME280;45426;44.726;10.390;2023-11-21T07:36:15;99865.56;;;11.06;100.00
59608;BME280;45426;44.726;10.390;2023-11-21T07:38:44;99874.34;;;11.16;100.00
59608;BME280;45426;44.726;10.390;2023-11-21T07:41:10;99876.72;;;11.17;100.00
59608;BME280;45426;44.726;10.390;2023-11-21T07:43:36;99871.69;;;11.03;100.00
59608;BME280;45426;44.726;10.390;2023-11-21T07:46:03;99862.59;;;11.12;100.00
59608;BME280;45426;44.726;10.390;2023-11-21T07:48:32;99850.56;;;11.60;100.00
59608;BME280;45426;44.726;10.390;2023-11-21T07:50:58;99849.59;;;11.53;100.00
59608;BME280;45426;44.726;10.390;2023-11-21T07:53:27;99854.19;;;11.17;100.00
59608;BME280;45426;44.726;10.390;2023-11-21T07:55:55;99860.50;;;11.21;100.00
59608;BME280;45426;44.726;10.390;2023-11-21T07:58:21;99861.19;;;11.50;100.00
59608;BME280;45426;44.726;10.390;2023-11-21T08:00:46;99862.31;;;11.33;100.00
59608;BME280;45426;44.726;10.390;2023-11-21T08:03:13;99865.41;;;11.31;100.00
59608;BME280;45426;44.726;10.390;2023-11-21T08:05:39;99865.50;;;10.75;100.00
59608;BME280;45426;44.726;10.390;2023-11-21T08:08:04;99880.47;;;10.68;100.00
59608;BME280;45426;44.726;10.390;2023-11-21T08:10:30;99877.13;;;11.03;100.00
59608;BME280;45426;44.726;10.390;2023-11-21T08:12:55;99873.75;;;11.54;100.00
59608;BME280;45426;44.726;10.390;2023-11-21T08:15:21;99860.84;;;11.67;100.00
59608;BME280;45426;44.726;10.390;2023-11-21T08:17:47;99852.56;;;11.79;100.00
59608;BME280;45426;44.726;10.390;2023-11-21T08:20:12;99854.94;;;11.65;100.00
59608;BME280;45426;44.726;10.390;2023-11-21T08:22:44;99869.31;;;11.81;100.00
59608;BME280;45426;44.726;10.390;2023-11-21T08:25:10;99876.09;;;11.56;100.00
59608;BME280;45426;44.726;10.390;2023-11-21T08:27:35;99870.59;;;11.52;100.00
59608;BME280;45426;44.726;10.390;2023-11-21T08:30:02;99870.81;;;11.63;100.00
59608;BME280;45426;44.726;10.390;2023-11-21T08:32:28;99876.63;;;11.77;100.00
59608;BME280;45426;44.726;10.390;2023-11-21T08:34:55;99872.81;;;11.82;100.00
59608;BME280;45426;44.726;10.390;2023-11-21T08:37:21;99876.44;;;11.70;100.00
59608;BME280;45426;44.726;10.390;2023-11-21T08:39:47;99878.91;;;11.75;100.00
59608;BME280;45426;44.726;10.390;2023-11-21T08:42:13;99882.91;;;11.81;100.00
59608;BME280;45426;44.726;10.390;2023-11-21T08:44:40;99876.34;;;11.82;100.00
59608;BME280;45426;44.726;10.390;2023-11-21T08:47:06;99877.66;;;11.89;100.00
59608;BME280;45426;44.726;10.390;2023-11-21T08:49:31;99880.03;;;11.74;100.00
59608;BME280;45426;44.726;10.390;2023-11-21T08:51:58;99888.53;;;11.89;100.00
59608;BME280;45426;44.726;10.390;2023-11-21T08:54:25;99890.56;;;11.76;100.00
59608;BME280;45426;44.726;10.390;2023-11-21T08:56:52;99893.13;;;11.53;100.00
59608;BME280;45426;44.726;10.390;2023-11-21T08:59:17;99894.72;;;11.38;100.00
59608;BME280;45426;44.726;10.390;2023-11-21T09:01:43;99906.31;;;11.51;100.00
59608;BME280;45426;44.726;10.390;2023-11-21T09:04:08;99894.34;;;11.71;100.00
59608;BME280;45426;44.726;10.390;2023-11-21T09:06:33;99901.66;;;11.67;100.00
59608;BME280;45426;44.726;10.390;2023-11-21T09:09:00;99901.19;;;11.65;100.00
59608;BME280;45426;44.726;10.390;2023-11-21T09:11:25;99897.06;;;11.55;100.00
59608;BME280;45426;44.726;10.390;2023-11-21T09:13:56;99899.00;;;11.87;100.00
59608;BME280;45426;44.726;10.390;2023-11-21T09:16:23;99894.72;;;11.70;100.00
59608;BME280;45426;44.726;10.390;2023-11-21T09:18:48;99902.84;;;11.54;100.00
59608;BME280;45426;44.726;10.390;2023-11-21T09:21:13;99893.56;;;11.71;100.00
59608;BME280;45426;44.726;10.390;2023-11-21T09:23:39;99886.28;;;11.59;100.00
59608;BME280;45426;44.726;10.390;2023-11-21T09:26:04;99898.66;;;11.56;100.00
59608;BME280;45426;44.726;10.390;2023-11-21T09:28:30;99891.63;;;11.55;100.00
59608;BME280;45426;44.726;10.390;2023-11-21T09:30:56;99893.56;;;11.39;100.00
59608;BME280;45426;44.726;10.390;2023-11-21T09:33:21;99894.34;;;11.71;100.00
59608;BME280;45426;44.726;10.390;2023-11-21T09:35:50;99900.59;;;11.72;100.00
59608;BME280;45426;44.726;10.390;2023-11-21T09:38:16;99892.25;;;11.80;100.00
59608;BME280;45426;44.726;10.390;2023-11-21T09:40:41;99896.28;;;11.71;100.00
59608;BME280;45426;44.726;10.390;2023-11-21T09:43:10;99896.63;;;12.01;100.00
59608;BME280;45426;44.726;10.390;2023-11-21T09:45:45;99896.38;;;11.90;100.00
59608;BME280;45426;44.726;10.390;2023-11-21T09:48:13;99889.94;;;11.98;100.00
59608;BME280;45426;44.726;10.390;2023-11-21T09:50:40;99887.63;;;12.16;100.00
59608;BME280;45426;44.726;10.390;2023-11-21T09:53:36;99876.16;;;12.07;100.00
59608;BME280;45426;44.726;10.390;2023-11-21T09:56:03;99864.28;;;12.35;100.00
59608;BME280;45426;44.726;10.390;2023-11-21T09:58:29;99857.09;;;12.27;100.00
59608;BME280;45426;44.726;10.390;2023-11-21T10:00:57;99850.66;;;12.74;100.00
59608;BME280;45426;44.726;10.390;2023-11-21T10:03:22;99837.63;;;12.87;100.00
59608;BME280;45426;44.726;10.390;2023-11-21T10:05:50;99838.78;;;12.62;100.00
59608;BME280;45426;44.726;10.390;2023-11-21T10:08:15;99815.69;;;13.45;100.00
59608;BME280;45426;44.726;10.390;2023-11-21T10:10:45;99807.13;;;13.73;100.00
59608;BME280;45426;44.726;10.390;2023-11-21T10:13:13;99813.50;;;13.31;100.00
59608;BME280;45426;44.726;10.390;2023-11-21T10:15:42;99809.16;;;13.80;100.00
59608;BME280;45426;44.726;10.390;2023-11-21T10:18:13;99806.50;;;13.57;100.00
59608;BME280;45426;44.726;10.390;2023-11-21T10:20:40;99813.25;;;13.17;100.00
59608;BME280;45426;44.726;10.390;2023-11-21T10:23:06;99806.06;;;13.55;100.00
59608;BME280;45426;44.726;10.390;2023-11-21T10:25:33;99799.34;;;13.75;100.00
59608;BME280;45426;44.726;10.390;2023-11-21T10:27:59;99794.63;;;13.46;100.00
59608;BME280;45426;44.726;10.390;2023-11-21T10:30:34;99792.69;;;13.23;100.00
59608;BME280;45426;44.726;10.390;2023-11-21T10:33:04;99785.06;;;12.86;100.00
59608;BME280;45426;44.726;10.390;2023-11-21T10:35:46;99788.84;;;13.28;100.00
59608;BME280;45426;44.726;10.390;2023-11-21T10:38:12;99790.16;;;13.11;100.00
59608;BME280;45426;44.726;10.390;2023-11-21T10:40:40;99802.34;;;13.97;100.00
59608;BME280;45426;44.726;10.390;2023-11-21T10:43:07;99797.50;;;14.13;100.00
59608;BME280;45426;44.726;10.390;2023-11-21T10:45:37;99793.72;;;13.65;100.00
59608;BME280;45426;44.726;10.390;2023-11-21T10:48:07;99800.63;;;13.55;100.00
59608;BME280;45426;44.726;10.390;2023-11-21T10:50:46;99796.25;;;13.27;100.00
59608;BME280;45426;44.726;10.390;2023-11-21T10:53:11;99796.56;;;13.45;100.00
59608;BME280;45426;44.726;10.390;2023-11-21T10:55:38;99781.47;;;13.82;100.00
59608;BME280;45426;44.726;10.390;2023-11-21T10:58:04;99775.59;;;14.40;100.00
59608;BME280;45426;44.726;10.390;2023-11-21T11:00:31;99771.72;;;13.27;100.00
59608;BME280;45426;44.726;10.390;2023-11-21T11:02:57;99777.88;;;13.24;100.00
59608;BME280;45426;44.726;10.390;2023-11-21T11:05:30;99785.53;;;12.92;100.00
59608;BME280;45426;44.726;10.390;2023-11-21T11:08:08;99788.22;;;13.34;100.00
59608;BME280;45426;44.726;10.390;2023-11-21T11:10:34;99794.63;;;13.23;100.00
59608;BME280;45426;44.726;10.390;2023-11-21T11:13:00;99792.31;;;13.01;100.00
59608;BME280;45426;44.726;10.390;2023-11-21T11:15:27;99778.88;;;13.12;100.00
59608;BME280;45426;44.726;10.390;2023-11-21T11:17:53;99789.06;;;12.92;100.00
59608;BME280;45426;44.726;10.390;2023-11-21T11:20:23;99796.34;;;13.08;100.00
59608;BME280;45426;44.726;10.390;2023-11-21T11:28:38;99789.88;;;12.73;100.00
59608;BME280;45426;44.726;10.390;2023-11-21T11:34:12;99797.19;;;13.12;100.00
59608;BME280;45426;44.726;10.390;2023-11-21T11:36:53;99793.25;;;12.86;100.00
59608;BME280;45426;44.726;10.390;2023-11-21T11:39:28;99793.78;;;12.95;100.00
59608;BME280;45426;44.726;10.390;2023-11-21T11:41:56;99791.69;;;12.85;100.00
59608;BME280;45426;44.726;10.390;2023-11-21T11:50:00;99797.47;;;12.41;100.00
59608;BME280;45426;44.726;10.390;2023-11-21T11:52:50;99798.13;;;12.77;100.00
59608;BME280;45426;44.726;10.390;2023-11-21T11:55:18;99789.66;;;12.82;100.00
59608;BME280;45426;44.726;10.390;2023-11-21T11:57:45;99790.44;;;12.82;100.00
59608;BME280;45426;44.726;10.390;2023-11-21T12:00:34;99787.66;;;12.79;100.00
59608;BME280;45426;44.726;10.390;2023-11-21T12:03:03;99799.25;;;12.95;100.00
59608;BME280;45426;44.726;10.390;2023-11-21T12:05:31;99799.91;;;12.89;100.00
59608;BME280;45426;44.726;10.390;2023-11-21T12:08:09;99797.75;;;12.36;100.00
59608;BME280;45426;44.726;10.390;2023-11-21T12:10:36;99803.28;;;12.82;100.00
59608;BME280;45426;44.726;10.390;2023-11-21T12:13:05;99784.31;;;12.66;100.00
59608;BME280;45426;44.726;10.390;2023-11-21T12:15:35;99801.72;;;12.38;100.00
59608;BME280;45426;44.726;10.390;2023-11-21T12:18:02;99809.50;;;12.01;100.00
59608;BME280;45426;44.726;10.390;2023-11-21T12:20:28;99805.56;;;12.37;100.00
59608;BME280;45426;44.726;10.390;2023-11-21T12:22:55;99798.53;;;12.56;100.00
59608;BME280;45426;44.726;10.390;2023-11-21T12:25:22;99796.59;;;12.17;100.00
59608;BME280;45426;44.726;10.390;2023-11-21T12:27:50;99796.59;;;11.98;100.00
59608;BME280;45426;44.726;10.390;2023-11-21T12:30:21;99793.75;;;12.30;100.00
59608;BME280;45426;44.726;10.390;2023-11-21T12:32:55;99800.03;;;11.95;100.00
59608;BME280;45426;44.726;10.390;2023-11-21T12:35:34;99797.63;;;11.74;100.00
59608;BME280;45426;44.726;10.390;2023-11-21T12:38:01;99796.34;;;12.03;100.00
59608;BME280;45426;44.726;10.390;2023-11-21T12:40:30;99788.06;;;12.58;100.00
59608;BME280;45426;44.726;10.390;2023-11-21T12:42:57;99791.00;;;12.49;100.00
59608;BME280;45426;44.726;10.390;2023-11-21T12:45:25;99793.31;;;12.08;100.00
59608;BME280;45426;44.726;10.390;2023-11-21T12:47:54;99782.22;;;12.36;100.00
59608;BME280;45426;44.726;10.390;2023-11-21T12:50:21;99775.91;;;12.75;100.00
59608;BME280;45426;44.726;10.390;2023-11-21T12:52:50;99770.25;;;12.21;100.00
59608;BME280;45426;44.726;10.390;2023-11-21T12:55:22;99770.03;;;12.11;100.00